Terminal Aerodrome Forecast
Issued by NWS Charleston, WV

Current Version | Previous Version | Graphics & Text | Print | Product List | Glossary On
Versions: 1 2 3 4 5 6 7 8 9 10 11 12 13 14 15 16 17 18 19 20 21 22 23 24
332
FTUS41 KRLX 221417 AAB
TAFEKN
TAF AMD
KEKN 221417Z 2214/2312 00000KT 6SM BR BKN004
      TEMPO 2214/2215 5SM BR SCT005
     FM221500 04003KT P6SM FEW050 BKN250
     FM230000 00000KT P6SM SKC
     FM230500 00000KT 4SM BR SKC
     FM230800 00000KT 1/4SM FG VV001=

USA.gov is the U.S. government's official web portal to all federal, state and local government web resources and services.